Time;durP1;ratioP1;P1;durP2;ratioP2;P2;SDS_P1;SDS_P2;PMS_P1;PMS_P2;Temp;Humidity;BMP_temperature;BMP_pressure;BME280_temperature;BME280_humidity;BME280_pressure;Samples;Min_cycle;Max_cycle;Signal;HPM_P1;HPM_P2
2022/12/16 00:01:13;;;;;;;116.68;40.28;;;;;;;;;;4801935;29;20492;-40
2022/12/16 00:03:40;;;;;;;99.60;34.97;;;;;;;;;;4802348;29;20118;-41
2022/12/16 00:06:08;;;;;;;105.25;35.05;;;;;;;;;;4802608;29;20042;-40
2022/12/16 00:08:35;;;;;;;110.65;37.63;;;;;;;;;;4802201;29;20133;-41
2022/12/16 00:11:03;;;;;;;102.22;34.72;;;;;;;;;;4799094;29;20723;-41
2022/12/16 00:13:30;;;;;;;102.15;34.45;;;;;;;;;;4801918;29;20046;-41
2022/12/16 00:15:57;;;;;;;104.43;33.17;;;;;;;;;;4799958;29;20061;-41
2022/12/16 00:18:24;;;;;;;125.53;36.08;;;;;;;;;;4802067;29;20043;-44
2022/12/16 00:20:52;;;;;;;126.75;36.33;;;;;;;;;;4802281;29;20050;-41
2022/12/16 00:23:20;;;;;;;124.10;37.35;;;;;;;;;;4802028;29;20118;-43
2022/12/16 00:25:47;;;;;;;109.35;35.45;;;;;;;;;;4798891;29;20051;-41
2022/12/16 00:28:14;;;;;;;131.88;37.33;;;;;;;;;;4801516;29;20408;-41
2022/12/16 00:30:41;;;;;;;125.10;36.63;;;;;;;;;;4801886;29;20978;-41
2022/12/16 00:33:07;;;;;;;98.85;33.85;;;;;;;;;;4802690;29;20047;-41
2022/12/16 00:35:34;;;;;;;102.85;34.85;;;;;;;;;;4800987;29;20166;-41
2022/12/16 00:38:00;;;;;;;102.70;35.33;;;;;;;;;;4801596;29;20043;-44
2022/12/16 00:40:27;;;;;;;112.90;35.15;;;;;;;;;;4801936;29;20531;-41
2022/12/16 00:42:53;;;;;;;108.20;34.83;;;;;;;;;;4798065;29;20073;-42
2022/12/16 00:45:20;;;;;;;121.53;36.45;;;;;;;;;;4798342;29;20492;-42
2022/12/16 00:47:48;;;;;;;99.00;34.45;;;;;;;;;;4800658;29;20054;-41
2022/12/16 00:50:15;;;;;;;114.50;34.25;;;;;;;;;;4801924;29;20069;-41
2022/12/16 00:52:41;;;;;;;118.28;35.50;;;;;;;;;;4801505;29;20039;-41
2022/12/16 00:55:08;;;;;;;108.75;36.83;;;;;;;;;;4785350;29;20054;-44
2022/12/16 00:57:35;;;;;;;101.90;35.65;;;;;;;;;;4801870;29;20510;-40
2022/12/16 01:00:04;;;;;;;118.53;37.10;;;;;;;;;;4801607;29;20046;-41
2022/12/16 01:02:30;;;;;;;105.20;35.42;;;;;;;;;;4801717;29;20061;-40
2022/12/16 01:04:57;;;;;;;106.45;35.97;;;;;;;;;;4801541;29;20125;-40
2022/12/16 01:07:24;;;;;;;107.75;34.63;;;;;;;;;;4801372;29;20111;-41
2022/12/16 01:09:50;;;;;;;116.10;37.30;;;;;;;;;;4801736;29;20054;-40
2022/12/16 01:12:17;;;;;;;140.35;39.47;;;;;;;;;;4801558;29;20073;-41
2022/12/16 01:14:43;;;;;;;116.15;37.42;;;;;;;;;;4801585;29;20488;-41
2022/12/16 01:17:10;;;;;;;107.40;38.45;;;;;;;;;;4800935;29;20047;-41
2022/12/16 01:19:36;;;;;;;111.05;39.47;;;;;;;;;;4785002;29;20435;-40
2022/12/16 01:22:03;;;;;;;116.22;37.17;;;;;;;;;;4801294;29;20557;-40
2022/12/16 01:24:29;;;;;;;123.35;40.10;;;;;;;;;;4801551;29;20047;-41
2022/12/16 01:26:56;;;;;;;128.45;38.50;;;;;;;;;;4802052;29;20058;-40
2022/12/16 01:29:22;;;;;;;110.72;35.75;;;;;;;;;;4801159;29;20043;-41
2022/12/16 01:31:49;;;;;;;105.03;32.70;;;;;;;;;;4801260;29;20134;-40
2022/12/16 01:34:15;;;;;;;105.72;36.78;;;;;;;;;;4801219;29;20054;-40
2022/12/16 01:36:42;;;;;;;111.10;35.42;;;;;;;;;;4801249;29;23082;-40
2022/12/16 01:39:09;;;;;;;111.88;35.90;;;;;;;;;;4785765;29;20050;-40
2022/12/16 01:41:36;;;;;;;112.22;34.45;;;;;;;;;;4801605;29;20523;-41
2022/12/16 01:44:16;;;;;;;101.22;34.00;;;;;;;;;;4801277;29;20053;-41
2022/12/16 01:46:48;;;;;;;106.18;33.13;;;;;;;;;;4798112;29;20150;-40
2022/12/16 01:49:25;;;;;;;106.32;34.85;;;;;;;;;;4801151;29;20049;-40
2022/12/16 01:51:52;;;;;;;115.13;37.75;;;;;;;;;;4801231;29;20051;-40
2022/12/16 01:54:29;;;;;;;123.22;35.20;;;;;;;;;;4801411;29;20055;-41
2022/12/16 01:57:08;;;;;;;126.43;37.28;;;;;;;;;;4800834;29;20154;-40
2022/12/16 01:59:36;;;;;;;101.90;33.80;;;;;;;;;;4801386;29;20127;-40
2022/12/16 02:02:03;;;;;;;102.57;33.00;;;;;;;;;;4800848;29;20065;-40
2022/12/16 02:04:30;;;;;;;110.25;34.78;;;;;;;;;;4801255;29;20046;-41
2022/12/16 02:06:57;;;;;;;112.13;31.38;;;;;;;;;;4785057;29;20062;-41
2022/12/16 02:09:23;;;;;;;122.82;35.25;;;;;;;;;;4800924;29;20063;-41
2022/12/16 02:12:05;;;;;;;112.75;33.90;;;;;;;;;;4785889;29;20153;-41
2022/12/16 02:14:34;;;;;;;106.93;33.85;;;;;;;;;;4800623;29;20051;-42
2022/12/16 02:17:01;;;;;;;107.78;34.67;;;;;;;;;;4801852;29;20054;-42
2022/12/16 02:19:46;;;;;;;99.43;34.10;;;;;;;;;;4804339;29;20031;-40
2022/12/16 02:22:31;;;;;;;116.10;33.78;;;;;;;;;;4803799;29;20094;-40
2022/12/16 02:25:13;;;;;;;108.28;32.22;;;;;;;;;;4802400;29;20051;-40
2022/12/16 02:27:44;;;;;;;103.97;35.03;;;;;;;;;;4801496;29;20480;-40
2022/12/16 02:30:30;;;;;;;113.32;32.80;;;;;;;;;;4804666;29;20420;-40
2022/12/16 02:33:29;;;;;;;110.47;33.13;;;;;;;;;;4804824;29;20131;-40
2022/12/16 02:36:10;;;;;;;110.50;34.80;;;;;;;;;;4748913;30;20091;-40
2022/12/16 02:39:02;;;;;;;98.25;32.60;;;;;;;;;;4748475;30;20064;-41
2022/12/16 02:41:29;;;;;;;101.05;32.03;;;;;;;;;;4743166;30;20071;-41
2022/12/16 02:43:57;;;;;;;94.03;30.58;;;;;;;;;;4747398;30;20052;-40
2022/12/16 02:46:28;;;;;;;117.60;33.42;;;;;;;;;;4747088;30;20081;-40
2022/12/16 02:48:55;;;;;;;100.38;30.58;;;;;;;;;;4747640;30;20086;-40
2022/12/16 02:51:23;;;;;;;112.03;33.75;;;;;;;;;;4747460;30;20200;-40
2022/12/16 02:53:50;;;;;;;97.85;31.80;;;;;;;;;;4748506;30;20674;-41
2022/12/16 02:56:35;;;;;;;102.32;32.42;;;;;;;;;;4747389;30;20139;-40
2022/12/16 02:59:04;;;;;;;113.03;33.50;;;;;;;;;;4743608;30;20068;-43
2022/12/16 03:01:38;;;;;;;99.05;31.05;;;;;;;;;;4747151;30;20188;-40
2022/12/16 03:04:14;;;;;;;97.45;30.73;;;;;;;;;;4747459;30;20073;-42
2022/12/16 03:06:42;;;;;;;103.07;29.42;;;;;;;;;;4744357;30;20048;-40
2022/12/16 03:09:11;;;;;;;103.13;32.72;;;;;;;;;;4745846;30;20068;-39
2022/12/16 03:11:39;;;;;;;108.28;33.53;;;;;;;;;;4775578;29;20129;-40
2022/12/16 03:14:06;;;;;;;109.03;31.70;;;;;;;;;;4802801;29;20042;-41
2022/12/16 03:16:33;;;;;;;96.32;30.73;;;;;;;;;;4803430;29;20050;-40
2022/12/16 03:19:05;;;;;;;112.85;32.83;;;;;;;;;;4799871;29;20512;-41
2022/12/16 03:21:44;;;;;;;106.32;32.55;;;;;;;;;;4803089;29;20043;-40
2022/12/16 03:24:12;;;;;;;107.25;31.92;;;;;;;;;;4803340;29;20560;-42
2022/12/16 03:26:44;;;;;;;109.90;33.25;;;;;;;;;;4803683;29;20125;-41
2022/12/16 03:29:20;;;;;;;98.45;31.10;;;;;;;;;;4802712;29;20547;-41
2022/12/16 03:31:53;;;;;;;98.03;30.83;;;;;;;;;;4803316;29;20456;-41
2022/12/16 03:34:19;;;;;;;103.18;32.60;;;;;;;;;;4803233;29;20508;-41
2022/12/16 03:36:49;;;;;;;125.28;35.30;;;;;;;;;;4802815;29;20557;-44
2022/12/16 03:39:18;;;;;;;123.60;34.05;;;;;;;;;;4803136;29;20470;-44
2022/12/16 03:41:46;;;;;;;109.93;34.47;;;;;;;;;;4803151;29;20048;-44
2022/12/16 03:44:12;;;;;;;97.78;30.00;;;;;;;;;;4799848;29;20050;-44
2022/12/16 03:46:39;;;;;;;99.20;30.70;;;;;;;;;;4802803;29;20058;-41
2022/12/16 03:49:06;;;;;;;91.03;31.17;;;;;;;;;;4802837;29;20074;-41
2022/12/16 03:51:33;;;;;;;117.68;32.08;;;;;;;;;;4802895;29;20050;-43
2022/12/16 03:54:00;;;;;;;98.18;32.55;;;;;;;;;;4803844;29;20047;-41
2022/12/16 03:56:26;;;;;;;111.75;32.20;;;;;;;;;;4802518;29;20059;-41
2022/12/16 03:58:53;;;;;;;112.82;29.95;;;;;;;;;;4801993;29;20743;-41
2022/12/16 04:01:19;;;;;;;123.55;34.72;;;;;;;;;;4798874;29;20420;-41
2022/12/16 04:03:46;;;;;;;107.45;34.33;;;;;;;;;;4803149;29;20047;-44
2022/12/16 04:06:17;;;;;;;116.70;32.60;;;;;;;;;;4802710;29;20565;-41
2022/12/16 04:08:45;;;;;;;107.65;32.47;;;;;;;;;;4801946;29;20146;-41
2022/12/16 04:25:14;;;;;;;109.97;32.72;;;;;;;;;;4802011;29;20118;-42
2022/12/16 04:27:45;;;;;;;113.13;32.25;;;;;;;;;;4800166;29;20046;-48
2022/12/16 04:30:19;;;;;;;107.13;33.45;;;;;;;;;;4801572;29;20043;-44
